sensor_id;sensor_type;location;lat;lon;timestamp;P1;durP1;ratioP1;P2;durP2;ratioP2
60641;SDS011;46837;52.446;-1.930;2024-01-30T00:00:07;20.36;;;6.76;;
60641;SDS011;46837;52.446;-1.930;2024-01-30T00:01:07;22.04;;;7.12;;
60641;SDS011;46837;52.446;-1.930;2024-01-30T00:02:07;31.22;;;8.20;;
60641;SDS011;46837;52.446;-1.930;2024-01-30T00:03:07;28.82;;;8.54;;
60641;SDS011;46837;52.446;-1.930;2024-01-30T00:04:07;22.38;;;6.74;;
60641;SDS011;46837;52.446;-1.930;2024-01-30T00:05:07;26.88;;;7.70;;
60641;SDS011;46837;52.446;-1.930;2024-01-30T00:06:07;24.16;;;7.46;;
60641;SDS011;46837;52.446;-1.930;2024-01-30T00:07:07;26.24;;;7.54;;
60641;SDS011;46837;52.446;-1.930;2024-01-30T00:08:07;27.64;;;6.74;;
60641;SDS011;46837;52.446;-1.930;2024-01-30T00:09:07;26.94;;;7.78;;
60641;SDS011;46837;52.446;-1.930;2024-01-30T00:10:07;18.68;;;6.00;;
60641;SDS011;46837;52.446;-1.930;2024-01-30T00:11:07;21.16;;;6.86;;
60641;SDS011;46837;52.446;-1.930;2024-01-30T00:12:07;26.80;;;8.00;;
60641;SDS011;46837;52.446;-1.930;2024-01-30T00:13:07;22.02;;;5.40;;
60641;SDS011;46837;52.446;-1.930;2024-01-30T00:14:07;23.40;;;6.94;;
60641;SDS011;46837;52.446;-1.930;2024-01-30T00:15:09;22.10;;;5.86;;
60641;SDS011;46837;52.446;-1.930;2024-01-30T00:16:07;16.76;;;5.84;;
60641;SDS011;46837;52.446;-1.930;2024-01-30T00:17:07;22.88;;;6.48;;
60641;SDS011;46837;52.446;-1.930;2024-01-30T00:18:07;29.64;;;6.88;;
60641;SDS011;46837;52.446;-1.930;2024-01-30T00:19:07;24.48;;;6.38;;
60641;SDS011;46837;52.446;-1.930;2024-01-30T00:20:07;19.92;;;6.74;;
60641;SDS011;46837;52.446;-1.930;2024-01-30T00:21:07;29.02;;;5.70;;
60641;SDS011;46837;52.446;-1.930;2024-01-30T00:22:07;18.62;;;6.36;;
60641;SDS011;46837;52.446;-1.930;2024-01-30T00:23:07;30.32;;;6.24;;
60641;SDS011;46837;52.446;-1.930;2024-01-30T00:24:07;25.08;;;5.04;;
60641;SDS011;46837;52.446;-1.930;2024-01-30T00:25:07;25.14;;;5.88;;
60641;SDS011;46837;52.446;-1.930;2024-01-30T00:26:07;15.66;;;4.90;;
60641;SDS011;46837;52.446;-1.930;2024-01-30T00:27:07;26.46;;;4.90;;
60641;SDS011;46837;52.446;-1.930;2024-01-30T00:28:07;26.16;;;7.26;;
60641;SDS011;46837;52.446;-1.930;2024-01-30T00:29:07;19.06;;;4.84;;
60641;SDS011;46837;52.446;-1.930;2024-01-30T00:30:07;23.98;;;4.36;;
60641;SDS011;46837;52.446;-1.930;2024-01-30T00:31:07;24.10;;;5.32;;
60641;SDS011;46837;52.446;-1.930;2024-01-30T00:32:07;22.58;;;4.38;;
60641;SDS011;46837;52.446;-1.930;2024-01-30T00:33:07;18.46;;;4.20;;
60641;SDS011;46837;52.446;-1.930;2024-01-30T00:34:07;10.12;;;3.14;;
60641;SDS011;46837;52.446;-1.930;2024-01-30T00:35:07;16.48;;;4.60;;
60641;SDS011;46837;52.446;-1.930;2024-01-30T00:36:07;16.34;;;3.24;;
60641;SDS011;46837;52.446;-1.930;2024-01-30T00:37:07;17.20;;;4.48;;
60641;SDS011;46837;52.446;-1.930;2024-01-30T00:38:08;8.54;;;2.76;;
60641;SDS011;46837;52.446;-1.930;2024-01-30T00:39:08;14.86;;;3.24;;
60641;SDS011;46837;52.446;-1.930;2024-01-30T00:40:07;8.58;;;2.46;;
60641;SDS011;46837;52.446;-1.930;2024-01-30T00:41:08;12.78;;;3.36;;
60641;SDS011;46837;52.446;-1.930;2024-01-30T00:42:07;14.10;;;2.82;;
60641;SDS011;46837;52.446;-1.930;2024-01-30T00:43:07;10.52;;;3.20;;
60641;SDS011;46837;52.446;-1.930;2024-01-30T00:44:07;11.98;;;3.04;;
60641;SDS011;46837;52.446;-1.930;2024-01-30T00:45:11;10.18;;;2.24;;
60641;SDS011;46837;52.446;-1.930;2024-01-30T00:46:07;13.02;;;3.08;;
60641;SDS011;46837;52.446;-1.930;2024-01-30T00:47:07;17.02;;;2.78;;
60641;SDS011;46837;52.446;-1.930;2024-01-30T00:48:07;12.04;;;2.44;;
60641;SDS011;46837;52.446;-1.930;2024-01-30T00:49:07;13.60;;;2.56;;
60641;SDS011;46837;52.446;-1.930;2024-01-30T00:50:07;24.38;;;3.62;;
60641;SDS011;46837;52.446;-1.930;2024-01-30T00:51:07;10.86;;;2.98;;
60641;SDS011;46837;52.446;-1.930;2024-01-30T00:52:07;9.56;;;2.04;;
60641;SDS011;46837;52.446;-1.930;2024-01-30T00:53:07;6.02;;;1.78;;
60641;SDS011;46837;52.446;-1.930;2024-01-30T00:54:07;21.36;;;2.30;;
60641;SDS011;46837;52.446;-1.930;2024-01-30T00:55:07;8.18;;;1.72;;
60641;SDS011;46837;52.446;-1.930;2024-01-30T00:56:07;4.94;;;1.66;;
60641;SDS011;46837;52.446;-1.930;2024-01-30T00:57:07;10.76;;;1.86;;
60641;SDS011;46837;52.446;-1.930;2024-01-30T00:58:07;5.96;;;2.84;;
60641;SDS011;46837;52.446;-1.930;2024-01-30T00:59:07;5.14;;;2.30;;
60641;SDS011;46837;52.446;-1.930;2024-01-30T01:00:08;4.38;;;1.98;;
60641;SDS011;46837;52.446;-1.930;2024-01-30T01:01:07;9.88;;;2.44;;
60641;SDS011;46837;52.446;-1.930;2024-01-30T01:02:07;10.64;;;1.80;;
60641;SDS011;46837;52.446;-1.930;2024-01-30T01:03:07;8.50;;;1.70;;
60641;SDS011;46837;52.446;-1.930;2024-01-30T01:04:07;4.80;;;1.46;;
60641;SDS011;46837;52.446;-1.930;2024-01-30T01:05:07;5.24;;;1.56;;
60641;SDS011;46837;52.446;-1.930;2024-01-30T01:06:07;4.96;;;1.40;;
60641;SDS011;46837;52.446;-1.930;2024-01-30T01:07:07;8.06;;;1.48;;
60641;SDS011;46837;52.446;-1.930;2024-01-30T01:08:07;2.90;;;1.44;;
60641;SDS011;46837;52.446;-1.930;2024-01-30T01:09:07;4.36;;;1.44;;
60641;SDS011;46837;52.446;-1.930;2024-01-30T01:10:07;3.68;;;1.96;;
60641;SDS011;46837;52.446;-1.930;2024-01-30T01:11:07;3.16;;;1.74;;
60641;SDS011;46837;52.446;-1.930;2024-01-30T01:12:07;5.24;;;1.30;;
60641;SDS011;46837;52.446;-1.930;2024-01-30T01:13:07;3.76;;;1.16;;
60641;SDS011;46837;52.446;-1.930;2024-01-30T01:14:07;5.66;;;1.48;;
60641;SDS011;46837;52.446;-1.930;2024-01-30T01:15:07;3.60;;;1.80;;
60641;SDS011;46837;52.446;-1.930;2024-01-30T01:16:07;4.06;;;1.62;;
60641;SDS011;46837;52.446;-1.930;2024-01-30T01:17:07;4.94;;;1.82;;
60641;SDS011;46837;52.446;-1.930;2024-01-30T01:18:07;5.64;;;1.82;;
60641;SDS011;46837;52.446;-1.930;2024-01-30T01:19:07;8.72;;;2.08;;
60641;SDS011;46837;52.446;-1.930;2024-01-30T01:20:08;3.20;;;1.52;;
60641;SDS011;46837;52.446;-1.930;2024-01-30T01:21:07;7.86;;;1.86;;
60641;SDS011;46837;52.446;-1.930;2024-01-30T01:22:07;6.90;;;1.90;;
60641;SDS011;46837;52.446;-1.930;2024-01-30T01:23:07;4.02;;;1.66;;
60641;SDS011;46837;52.446;-1.930;2024-01-30T01:24:07;4.16;;;1.88;;
60641;SDS011;46837;52.446;-1.930;2024-01-30T01:25:09;8.32;;;2.42;;
60641;SDS011;46837;52.446;-1.930;2024-01-30T01:26:07;6.54;;;2.12;;
60641;SDS011;46837;52.446;-1.930;2024-01-30T01:27:07;8.76;;;2.34;;
60641;SDS011;46837;52.446;-1.930;2024-01-30T01:28:07;2.20;;;2.00;;
60641;SDS011;46837;52.446;-1.930;2024-01-30T01:29:10;10.20;;;2.14;;
60641;SDS011;46837;52.446;-1.930;2024-01-30T01:30:10;8.90;;;1.98;;
60641;SDS011;46837;52.446;-1.930;2024-01-30T01:31:07;7.40;;;2.18;;
60641;SDS011;46837;52.446;-1.930;2024-01-30T01:32:07;9.78;;;1.88;;
60641;SDS011;46837;52.446;-1.930;2024-01-30T01:33:07;5.60;;;2.22;;
60641;SDS011;46837;52.446;-1.930;2024-01-30T01:34:07;8.46;;;2.30;;
60641;SDS011;46837;52.446;-1.930;2024-01-30T01:35:09;5.42;;;1.84;;
60641;SDS011;46837;52.446;-1.930;2024-01-30T01:36:07;7.94;;;2.46;;
60641;SDS011;46837;52.446;-1.930;2024-01-30T01:37:07;5.76;;;2.14;;
60641;SDS011;46837;52.446;-1.930;2024-01-30T01:38:07;5.30;;;1.98;;
60641;SDS011;46837;52.446;-1.930;2024-01-30T01:39:07;6.00;;;2.74;;
60641;SDS011;46837;52.446;-1.930;2024-01-30T01:40:07;11.22;;;2.50;;
60641;SDS011;46837;52.446;-1.930;2024-01-30T01:41:07;7.36;;;2.50;;
60641;SDS011;46837;52.446;-1.930;2024-01-30T01:42:07;5.44;;;3.68;;
60641;SDS011;46837;52.446;-1.930;2024-01-30T01:43:07;7.22;;;2.38;;
60641;SDS011;46837;52.446;-1.930;2024-01-30T01:44:07;9.96;;;2.68;;
60641;SDS011;46837;52.446;-1.930;2024-01-30T01:45:07;7.06;;;2.80;;
60641;SDS011;46837;52.446;-1.930;2024-01-30T01:46:07;10.84;;;2.60;;
60641;SDS011;46837;52.446;-1.930;2024-01-30T01:47:07;5.26;;;2.70;;
60641;SDS011;46837;52.446;-1.930;2024-01-30T01:48:07;5.86;;;3.22;;
60641;SDS011;46837;52.446;-1.930;2024-01-30T01:49:07;3.96;;;2.46;;
60641;SDS011;46837;52.446;-1.930;2024-01-30T01:50:07;5.72;;;2.84;;
60641;SDS011;46837;52.446;-1.930;2024-01-30T01:51:07;4.44;;;2.36;;
60641;SDS011;46837;52.446;-1.930;2024-01-30T01:52:07;4.16;;;2.54;;
60641;SDS011;46837;52.446;-1.930;2024-01-30T01:53:07;3.42;;;2.60;;
60641;SDS011;46837;52.446;-1.930;2024-01-30T01:54:07;4.04;;;2.52;;
60641;SDS011;46837;52.446;-1.930;2024-01-30T01:55:07;3.24;;;2.46;;
60641;SDS011;46837;52.446;-1.930;2024-01-30T01:56:07;4.02;;;2.78;;
60641;SDS011;46837;52.446;-1.930;2024-01-30T01:57:07;6.20;;;2.80;;
60641;SDS011;46837;52.446;-1.930;2024-01-30T01:58:07;4.80;;;2.90;;
60641;SDS011;46837;52.446;-1.930;2024-01-30T01:59:07;4.20;;;3.00;;
60641;SDS011;46837;52.446;-1.930;2024-01-30T02:00:07;4.46;;;2.84;;
60641;SDS011;46837;52.446;-1.930;2024-01-30T02:01:07;5.58;;;2.60;;
60641;SDS011;46837;52.446;-1.930;2024-01-30T02:02:07;3.12;;;2.76;;
60641;SDS011;46837;52.446;-1.930;2024-01-30T02:03:08;3.10;;;2.42;;
60641;SDS011;46837;52.446;-1.930;2024-01-30T02:04:07;3.48;;;2.46;;
60641;SDS011;46837;52.446;-1.930;2024-01-30T02:05:07;4.48;;;2.18;;
60641;SDS011;46837;52.446;-1.930;2024-01-30T02:06:07;2.26;;;1.90;;
60641;SDS011;46837;52.446;-1.930;2024-01-30T02:07:07;4.18;;;2.02;;
60641;SDS011;46837;52.446;-1.930;2024-01-30T02:08:07;3.74;;;2.70;;
60641;SDS011;46837;52.446;-1.930;2024-01-30T02:09:07;5.36;;;2.48;;
60641;SDS011;46837;52.446;-1.930;2024-01-30T02:10:09;4.46;;;2.08;;
60641;SDS011;46837;52.446;-1.930;2024-01-30T02:11:07;2.00;;;1.86;;
60641;SDS011;46837;52.446;-1.930;2024-01-30T02:12:07;4.84;;;1.52;;
60641;SDS011;46837;52.446;-1.930;2024-01-30T02:13:07;2.24;;;1.90;;
60641;SDS011;46837;52.446;-1.930;2024-01-30T02:14:07;4.04;;;1.64;;
60641;SDS011;46837;52.446;-1.930;2024-01-30T02:15:07;3.84;;;1.68;;
60641;SDS011;46837;52.446;-1.930;2024-01-30T02:16:07;1.38;;;1.14;;
60641;SDS011;46837;52.446;-1.930;2024-01-30T02:17:07;1.68;;;1.34;;
60641;SDS011;46837;52.446;-1.930;2024-01-30T02:18:07;1.30;;;1.08;;
60641;SDS011;46837;52.446;-1.930;2024-01-30T02:19:07;1.92;;;1.08;;
60641;SDS011;46837;52.446;-1.930;2024-01-30T02:20:07;2.54;;;1.22;;
60641;SDS011;46837;52.446;-1.930;2024-01-30T02:21:07;1.30;;;1.14;;
60641;SDS011;46837;52.446;-1.930;2024-01-30T02:22:07;3.00;;;1.50;;
60641;SDS011;46837;52.446;-1.930;2024-01-30T02:23:07;1.54;;;1.42;;
60641;SDS011;46837;52.446;-1.930;2024-01-30T02:24:07;4.04;;;1.50;;
60641;SDS011;46837;52.446;-1.930;2024-01-30T02:25:07;2.28;;;1.26;;
60641;SDS011;46837;52.446;-1.930;2024-01-30T02:26:07;1.66;;;1.30;;
60641;SDS011;46837;52.446;-1.930;2024-01-30T02:27:07;1.86;;;1.40;;
60641;SDS011;46837;52.446;-1.930;2024-01-30T02:28:07;1.50;;;1.22;;
60641;SDS011;46837;52.446;-1.930;2024-01-30T02:29:07;0.92;;;0.92;;
60641;SDS011;46837;52.446;-1.930;2024-01-30T02:30:07;1.06;;;0.88;;
60641;SDS011;46837;52.446;-1.930;2024-01-30T02:31:07;1.14;;;1.08;;
60641;SDS011;46837;52.446;-1.930;2024-01-30T02:32:07;1.24;;;1.08;;
60641;SDS011;46837;52.446;-1.930;2024-01-30T02:33:07;1.20;;;0.96;;
60641;SDS011;46837;52.446;-1.930;2024-01-30T02:34:07;1.22;;;0.98;;
60641;SDS011;46837;52.446;-1.930;2024-01-30T02:35:07;1.12;;;1.08;;
60641;SDS011;46837;52.446;-1.930;2024-01-30T02:36:07;1.82;;;1.40;;
60641;SDS011;46837;52.446;-1.930;2024-01-30T02:37:07;2.32;;;1.00;;
60641;SDS011;46837;52.446;-1.930;2024-01-30T02:38:07;0.84;;;0.84;;
60641;SDS011;46837;52.446;-1.930;2024-01-30T02:39:07;1.00;;;1.00;;
60641;SDS011;46837;52.446;-1.930;2024-01-30T02:40:07;1.72;;;0.92;;
60641;SDS011;46837;52.446;-1.930;2024-01-30T02:41:07;1.26;;;1.00;;
60641;SDS011;46837;52.446;-1.930;2024-01-30T02:42:07;1.30;;;0.80;;
60641;SDS011;46837;52.446;-1.930;2024-01-30T02:43:07;1.20;;;0.72;;
60641;SDS011;46837;52.446;-1.930;2024-01-30T02:44:07;1.70;;;1.02;;
60641;SDS011;46837;52.446;-1.930;2024-01-30T02:45:07;1.56;;;1.08;;
60641;SDS011;46837;52.446;-1.930;2024-01-30T02:46:07;1.46;;;0.88;;
60641;SDS011;46837;52.446;-1.930;2024-01-30T02:47:07;1.10;;;0.80;;
60641;SDS011;46837;52.446;-1.930;2024-01-30T02:48:07;1.90;;;1.02;;
60641;SDS011;46837;52.446;-1.930;2024-01-30T02:49:07;2.80;;;1.12;;
60641;SDS011;46837;52.446;-1.930;2024-01-30T02:50:07;1.86;;;1.66;;
60641;SDS011;46837;52.446;-1.930;2024-01-30T02:51:07;4.88;;;1.86;;
60641;SDS011;46837;52.446;-1.930;2024-01-30T02:52:07;2.10;;;1.82;;
60641;SDS011;46837;52.446;-1.930;2024-01-30T02:53:07;4.06;;;1.12;;
60641;SDS011;46837;52.446;-1.930;2024-01-30T02:54:07;1.54;;;1.12;;
60641;SDS011;46837;52.446;-1.930;2024-01-30T02:55:07;1.34;;;1.18;;
60641;SDS011;46837;52.446;-1.930;2024-01-30T02:56:07;0.62;;;0.62;;
60641;SDS011;46837;52.446;-1.930;2024-01-30T02:57:07;1.26;;;0.74;;
60641;SDS011;46837;52.446;-1.930;2024-01-30T02:58:07;0.68;;;0.40;;
60641;SDS011;46837;52.446;-1.930;2024-01-30T02:59:07;0.20;;;0.20;;
60641;SDS011;46837;52.446;-1.930;2024-01-30T03:00:07;0.60;;;0.46;;
60641;SDS011;46837;52.446;-1.930;2024-01-30T03:01:07;0.84;;;0.22;;
60641;SDS011;46837;52.446;-1.930;2024-01-30T03:02:07;0.24;;;0.24;;
60641;SDS011;46837;52.446;-1.930;2024-01-30T03:03:07;0.68;;;0.36;;
60641;SDS011;46837;52.446;-1.930;2024-01-30T03:04:07;0.64;;;0.42;;
60641;SDS011;46837;52.446;-1.930;2024-01-30T03:05:07;2.44;;;0.28;;
60641;SDS011;46837;52.446;-1.930;2024-01-30T03:06:07;0.34;;;0.30;;
60641;SDS011;46837;52.446;-1.930;2024-01-30T03:07:07;1.34;;;0.66;;
60641;SDS011;46837;52.446;-1.930;2024-01-30T03:08:07;1.72;;;0.80;;
60641;SDS011;46837;52.446;-1.930;2024-01-30T03:09:07;0.72;;;0.50;;
60641;SDS011;46837;52.446;-1.930;2024-01-30T03:10:07;0.30;;;0.30;;
60641;SDS011;46837;52.446;-1.930;2024-01-30T03:11:07;3.08;;;0.50;;
60641;SDS011;46837;52.446;-1.930;2024-01-30T03:12:07;1.62;;;0.50;;
60641;SDS011;46837;52.446;-1.930;2024-01-30T03:13:07;1.28;;;0.50;;
60641;SDS011;46837;52.446;-1.930;2024-01-30T03:14:07;0.40;;;0.34;;
60641;SDS011;46837;52.446;-1.930;2024-01-30T03:15:07;2.06;;;0.68;;
60641;SDS011;46837;52.446;-1.930;2024-01-30T03:16:08;0.56;;;0.40;;
60641;SDS011;46837;52.446;-1.930;2024-01-30T03:17:07;1.36;;;0.84;;
60641;SDS011;46837;52.446;-1.930;2024-01-30T03:18:07;0.94;;;0.82;;
60641;SDS011;46837;52.446;-1.930;2024-01-30T03:19:07;0.86;;;0.86;;
60641;SDS011;46837;52.446;-1.930;2024-01-30T03:20:07;1.84;;;1.20;;
60641;SDS011;46837;52.446;-1.930;2024-01-30T03:21:07;0.86;;;0.86;;
60641;SDS011;46837;52.446;-1.930;2024-01-30T03:22:07;3.14;;;1.10;;
60641;SDS011;46837;52.446;-1.930;2024-01-30T03:23:07;1.00;;;1.00;;
60641;SDS011;46837;52.446;-1.930;2024-01-30T03:24:07;1.16;;;1.16;;
60641;SDS011;46837;52.446;-1.930;2024-01-30T03:25:07;0.92;;;0.92;;
60641;SDS011;46837;52.446;-1.930;2024-01-30T03:26:07;3.62;;;1.20;;
60641;SDS011;46837;52.446;-1.930;2024-01-30T03:27:07;1.04;;;1.02;;
60641;SDS011;46837;52.446;-1.930;2024-01-30T03:28:07;2.30;;;2.08;;
60641;SDS011;46837;52.446;-1.930;2024-01-30T03:29:07;1.46;;;1.12;;
60641;SDS011;46837;52.446;-1.930;2024-01-30T03:30:07;1.24;;;1.04;;
60641;SDS011;46837;52.446;-1.930;2024-01-30T03:31:07;1.10;;;1.00;;
60641;SDS011;46837;52.446;-1.930;2024-01-30T03:32:07;1.40;;;1.30;;
60641;SDS011;46837;52.446;-1.930;2024-01-30T03:33:07;1.44;;;1.28;;
60641;SDS011;46837;52.446;-1.930;2024-01-30T03:34:07;2.26;;;1.48;;
60641;SDS011;46837;52.446;-1.930;2024-01-30T03:35:07;1.28;;;1.18;;
60641;SDS011;46837;52.446;-1.930;2024-01-30T03:36:07;1.06;;;1.04;;
60641;SDS011;46837;52.446;-1.930;2024-01-30T03:37:07;1.40;;;1.30;;
60641;SDS011;46837;52.446;-1.930;2024-01-30T03:38:07;1.08;;;1.08;;
60641;SDS011;46837;52.446;-1.930;2024-01-30T03:39:07;1.66;;;1.56;;
60641;SDS011;46837;52.446;-1.930;2024-01-30T03:40:07;1.54;;;1.44;;
60641;SDS011;46837;52.446;-1.930;2024-01-30T03:41:07;1.16;;;1.10;;
60641;SDS011;46837;52.446;-1.930;2024-01-30T03:42:07;1.40;;;1.30;;
60641;SDS011;46837;52.446;-1.930;2024-01-30T03:43:07;1.42;;;1.34;;
60641;SDS011;46837;52.446;-1.930;2024-01-30T03:44:07;1.34;;;1.24;;
60641;SDS011;46837;52.446;-1.930;2024-01-30T03:45:07;1.34;;;1.30;;
60641;SDS011;46837;52.446;-1.930;2024-01-30T03:46:07;1.22;;;1.18;;
60641;SDS011;46837;52.446;-1.930;2024-01-30T03:47:07;1.22;;;1.14;;
60641;SDS011;46837;52.446;-1.930;2024-01-30T03:48:07;1.06;;;1.06;;
60641;SDS011;46837;52.446;-1.930;2024-01-30T03:49:07;1.74;;;1.64;;
60641;SDS011;46837;52.446;-1.930;2024-01-30T03:50:07;1.20;;;1.10;;
60641;SDS011;46837;52.446;-1.930;2024-01-30T03:51:07;1.08;;;1.08;;
60641;SDS011;46837;52.446;-1.930;2024-01-30T03:52:07;0.94;;;0.94;;
60641;SDS011;46837;52.446;-1.930;2024-01-30T03:53:07;2.52;;;1.24;;
60641;SDS011;46837;52.446;-1.930;2024-01-30T03:54:07;1.30;;;0.98;;
60641;SDS011;46837;52.446;-1.930;2024-01-30T03:55:07;1.20;;;1.12;;
60641;SDS011;46837;52.446;-1.930;2024-01-30T03:56:07;1.02;;;1.00;;
60641;SDS011;46837;52.446;-1.930;2024-01-30T03:57:07;0.92;;;0.92;;
60641;SDS011;46837;52.446;-1.930;2024-01-30T03:58:07;1.02;;;0.92;;
60641;SDS011;46837;52.446;-1.930;2024-01-30T03:59:07;1.46;;;0.56;;
60641;SDS011;46837;52.446;-1.930;2024-01-30T04:00:07;1.76;;;0.64;;
60641;SDS011;46837;52.446;-1.930;2024-01-30T04:01:07;0.62;;;0.62;;
60641;SDS011;46837;52.446;-1.930;2024-01-30T04:02:07;0.66;;;0.66;;
60641;SDS011;46837;52.446;-1.930;2024-01-30T04:03:07;2.72;;;0.76;;
60641;SDS011;46837;52.446;-1.930;2024-01-30T04:04:07;0.92;;;0.66;;
60641;SDS011;46837;52.446;-1.930;2024-01-30T04:05:07;2.56;;;0.82;;
60641;SDS011;46837;52.446;-1.930;2024-01-30T04:06:07;0.76;;;0.76;;
60641;SDS011;46837;52.446;-1.930;2024-01-30T04:07:07;0.70;;;0.70;;
60641;SDS011;46837;52.446;-1.930;2024-01-30T04:08:07;0.68;;;0.68;;
60641;SDS011;46837;52.446;-1.930;2024-01-30T04:09:07;0.98;;;0.86;;
60641;SDS011;46837;52.446;-1.930;2024-01-30T04:10:12;0.96;;;0.88;;
60641;SDS011;46837;52.446;-1.930;2024-01-30T04:11:09;1.86;;;0.68;;
60641;SDS011;46837;52.446;-1.930;2024-01-30T04:12:07;2.22;;;0.66;;
60641;SDS011;46837;52.446;-1.930;2024-01-30T04:13:07;0.54;;;0.54;;
60641;SDS011;46837;52.446;-1.930;2024-01-30T04:14:07;0.58;;;0.58;;
60641;SDS011;46837;52.446;-1.930;2024-01-30T04:15:07;0.50;;;0.50;;
60641;SDS011;46837;52.446;-1.930;2024-01-30T04:16:07;0.70;;;0.44;;
60641;SDS011;46837;52.446;-1.930;2024-01-30T04:17:07;0.98;;;0.44;;
60641;SDS011;46837;52.446;-1.930;2024-01-30T04:18:07;0.94;;;0.50;;
60641;SDS011;46837;52.446;-1.930;2024-01-30T04:19:07;0.58;;;0.50;;
60641;SDS011;46837;52.446;-1.930;2024-01-30T04:20:07;0.60;;;0.58;;
60641;SDS011;46837;52.446;-1.930;2024-01-30T04:21:07;1.24;;;0.48;;
60641;SDS011;46837;52.446;-1.930;2024-01-30T04:22:07;1.08;;;0.44;;
60641;SDS011;46837;52.446;-1.930;2024-01-30T04:23:07;0.44;;;0.44;;
60641;SDS011;46837;52.446;-1.930;2024-01-30T04:24:07;1.32;;;0.62;;
60641;SDS011;46837;52.446;-1.930;2024-01-30T04:25:07;0.32;;;0.30;;
60641;SDS011;46837;52.446;-1.930;2024-01-30T04:26:07;0.58;;;0.28;;
60641;SDS011;46837;52.446;-1.930;2024-01-30T04:27:07;0.58;;;0.40;;
60641;SDS011;46837;52.446;-1.930;2024-01-30T04:28:07;0.34;;;0.30;;
60641;SDS011;46837;52.446;-1.930;2024-01-30T04:29:07;0.32;;;0.32;;
60641;SDS011;46837;52.446;-1.930;2024-01-30T04:30:07;2.58;;;0.26;;
60641;SDS011;46837;52.446;-1.930;2024-01-30T04:31:07;0.44;;;0.22;;
60641;SDS011;46837;52.446;-1.930;2024-01-30T04:32:07;0.10;;;0.10;;
60641;SDS011;46837;52.446;-1.930;2024-01-30T04:33:07;3.26;;;0.36;;
60641;SDS011;46837;52.446;-1.930;2024-01-30T04:34:07;1.30;;;0.18;;
60641;SDS011;46837;52.446;-1.930;2024-01-30T04:35:07;0.58;;;0.30;;
60641;SDS011;46837;52.446;-1.930;2024-01-30T04:36:08;0.76;;;0.20;;
60641;SDS011;46837;52.446;-1.930;2024-01-30T04:37:07;1.14;;;0.20;;
60641;SDS011;46837;52.446;-1.930;2024-01-30T04:38:07;0.20;;;0.20;;
60641;SDS011;46837;52.446;-1.930;2024-01-30T04:39:07;0.66;;;0.28;;
60641;SDS011;46837;52.446;-1.930;2024-01-30T04:40:07;1.34;;;0.20;;
60641;SDS011;46837;52.446;-1.930;2024-01-30T04:41:07;1.06;;;0.32;;
60641;SDS011;46837;52.446;-1.930;2024-01-30T04:42:07;0.42;;;0.20;;
60641;SDS011;46837;52.446;-1.930;2024-01-30T04:43:07;5.94;;;0.50;;
60641;SDS011;46837;52.446;-1.930;2024-01-30T04:44:07;0.20;;;0.20;;
60641;SDS011;46837;52.446;-1.930;2024-01-30T04:45:07;0.52;;;0.32;;
60641;SDS011;46837;52.446;-1.930;2024-01-30T04:46:07;1.10;;;0.42;;
60641;SDS011;46837;52.446;-1.930;2024-01-30T04:47:07;0.54;;;0.32;;
60641;SDS011;46837;52.446;-1.930;2024-01-30T04:48:07;0.88;;;0.30;;
60641;SDS011;46837;52.446;-1.930;2024-01-30T04:49:07;2.20;;;0.36;;
60641;SDS011;46837;52.446;-1.930;2024-01-30T04:50:07;1.00;;;0.40;;
60641;SDS011;46837;52.446;-1.930;2024-01-30T04:51:07;0.38;;;0.20;;
60641;SDS011;46837;52.446;-1.930;2024-01-30T04:52:07;0.98;;;0.20;;
60641;SDS011;46837;52.446;-1.930;2024-01-30T04:53:07;2.04;;;0.40;;
60641;SDS011;46837;52.446;-1.930;2024-01-30T04:54:07;8.92;;;0.56;;
60641;SDS011;46837;52.446;-1.930;2024-01-30T04:55:07;1.32;;;0.38;;
60641;SDS011;46837;52.446;-1.930;2024-01-30T04:56:07;2.06;;;0.42;;
60641;SDS011;46837;52.446;-1.930;2024-01-30T04:57:10;1.98;;;0.30;;
60641;SDS011;46837;52.446;-1.930;2024-01-30T04:58:07;1.08;;;0.32;;
60641;SDS011;46837;52.446;-1.930;2024-01-30T04:59:07;0.48;;;0.30;;
60641;SDS011;46837;52.446;-1.930;2024-01-30T05:00:07;0.32;;;0.30;;
60641;SDS011;46837;52.446;-1.930;2024-01-30T05:01:07;0.36;;;0.30;;
60641;SDS011;46837;52.446;-1.930;2024-01-30T05:02:07;0.34;;;0.30;;
60641;SDS011;46837;52.446;-1.930;2024-01-30T05:03:07;0.66;;;0.34;;
60641;SDS011;46837;52.446;-1.930;2024-01-30T05:04:07;0.20;;;0.20;;
60641;SDS011;46837;52.446;-1.930;2024-01-30T05:05:07;0.78;;;0.30;;
60641;SDS011;46837;52.446;-1.930;2024-01-30T05:06:07;1.52;;;0.26;;
60641;SDS011;46837;52.446;-1.930;2024-01-30T05:07:07;1.74;;;0.20;;
60641;SDS011;46837;52.446;-1.930;2024-01-30T05:08:07;0.30;;;0.28;;
60641;SDS011;46837;52.446;-1.930;2024-01-30T05:09:07;4.06;;;0.74;;
60641;SDS011;46837;52.446;-1.930;2024-01-30T05:10:07;1.82;;;0.24;;
60641;SDS011;46837;52.446;-1.930;2024-01-30T05:11:07;0.60;;;0.22;;
60641;SDS011;46837;52.446;-1.930;2024-01-30T05:12:07;0.66;;;0.12;;
60641;SDS011;46837;52.446;-1.930;2024-01-30T05:13:07;2.48;;;0.38;;
60641;SDS011;46837;52.446;-1.930;2024-01-30T05:14:07;2.98;;;0.24;;
60641;SDS011;46837;52.446;-1.930;2024-01-30T05:15:07;0.12;;;0.10;;
60641;SDS011;46837;52.446;-1.930;2024-01-30T05:16:07;0.44;;;0.20;;
60641;SDS011;46837;52.446;-1.930;2024-01-30T05:17:07;1.84;;;0.80;;
60641;SDS011;46837;52.446;-1.930;2024-01-30T05:18:07;0.70;;;0.12;;
60641;SDS011;46837;52.446;-1.930;2024-01-30T05:19:07;0.96;;;0.10;;
60641;SDS011;46837;52.446;-1.930;2024-01-30T05:20:07;0.12;;;0.10;;
60641;SDS011;46837;52.446;-1.930;2024-01-30T05:21:07;1.72;;;0.28;;
60641;SDS011;46837;52.446;-1.930;2024-01-30T05:22:07;1.72;;;0.20;;
60641;SDS011;46837;52.446;-1.930;2024-01-30T05:23:07;1.88;;;0.64;;
60641;SDS011;46837;52.446;-1.930;2024-01-30T05:24:07;0.66;;;0.30;;
60641;SDS011;46837;52.446;-1.930;2024-01-30T05:25:07;0.36;;;0.22;;
60641;SDS011;46837;52.446;-1.930;2024-01-30T05:26:07;2.02;;;0.32;;
60641;SDS011;46837;52.446;-1.930;2024-01-30T05:27:07;0.40;;;0.18;;
60641;SDS011;46837;52.446;-1.930;2024-01-30T05:28:07;2.80;;;0.30;;
60641;SDS011;46837;52.446;-1.930;2024-01-30T05:29:07;1.14;;;0.24;;
60641;SDS011;46837;52.446;-1.930;2024-01-30T05:30:07;0.52;;;0.30;;
60641;SDS011;46837;52.446;-1.930;2024-01-30T05:31:07;0.80;;;0.28;;
60641;SDS011;46837;52.446;-1.930;2024-01-30T05:32:09;0.44;;;0.20;;
60641;SDS011;46837;52.446;-1.930;2024-01-30T05:33:07;0.28;;;0.20;;
60641;SDS011;46837;52.446;-1.930;2024-01-30T05:34:07;1.20;;;0.38;;
60641;SDS011;46837;52.446;-1.930;2024-01-30T05:35:07;1.88;;;0.30;;
60641;SDS011;46837;52.446;-1.930;2024-01-30T05:36:07;0.70;;;0.30;;
60641;SDS011;46837;52.446;-1.930;2024-01-30T05:37:07;1.90;;;0.20;;
60641;SDS011;46837;52.446;-1.930;2024-01-30T05:38:07;2.98;;;0.20;;
60641;SDS011;46837;52.446;-1.930;2024-01-30T05:39:07;0.22;;;0.10;;
60641;SDS011;46837;52.446;-1.930;2024-01-30T05:40:07;0.74;;;0.20;;
60641;SDS011;46837;52.446;-1.930;2024-01-30T05:41:07;0.64;;;0.34;;
60641;SDS011;46837;52.446;-1.930;2024-01-30T05:42:07;0.54;;;0.40;;
60641;SDS011;46837;52.446;-1.930;2024-01-30T05:43:07;0.72;;;0.10;;
60641;SDS011;46837;52.446;-1.930;2024-01-30T05:44:07;0.80;;;0.10;;
60641;SDS011;46837;52.446;-1.930;2024-01-30T05:45:07;0.38;;;0.30;;
60641;SDS011;46837;52.446;-1.930;2024-01-30T05:46:07;2.96;;;0.52;;
60641;SDS011;46837;52.446;-1.930;2024-01-30T05:47:07;1.66;;;0.28;;
60641;SDS011;46837;52.446;-1.930;2024-01-30T05:48:07;0.96;;;0.32;;
60641;SDS011;46837;52.446;-1.930;2024-01-30T05:49:07;0.36;;;0.28;;
60641;SDS011;46837;52.446;-1.930;2024-01-30T05:50:07;1.24;;;0.26;;
60641;SDS011;46837;52.446;-1.930;2024-01-30T05:51:07;0.88;;;0.42;;
60641;SDS011;46837;52.446;-1.930;2024-01-30T05:52:07;1.98;;;0.24;;
60641;SDS011;46837;52.446;-1.930;2024-01-30T05:53:07;0.20;;;0.20;;
60641;SDS011;46837;52.446;-1.930;2024-01-30T05:54:07;1.64;;;0.38;;
60641;SDS011;46837;52.446;-1.930;2024-01-30T05:55:07;0.96;;;0.42;;